createdAt,value
2018-10-12T00:00:00.818Z,86.91
2018-10-12T00:01:01.049Z,86.76
2018-10-12T00:02:01.271Z,87.10
2018-10-12T00:03:01.498Z,86.15
2018-10-12T00:04:01.725Z,86.24
2018-10-12T00:05:01.959Z,85.77
2018-10-12T00:06:02.182Z,86.05
2018-10-12T00:07:02.447Z,86.15
2018-10-12T00:08:02.636Z,84.72
2018-10-12T00:09:02.863Z,84.33
2018-10-12T00:10:03.088Z,85.19
2018-10-12T00:11:03.324Z,85.10
2018-10-12T00:12:03.548Z,85.77
2018-10-12T00:13:03.778Z,85.67
2018-10-12T00:14:03.997Z,85.86
2018-10-12T00:15:04.227Z,86.15
2018-10-12T00:16:04.452Z,85.96
2018-10-12T00:17:04.680Z,85.67
2018-10-12T00:18:04.911Z,86.05
2018-10-12T00:19:05.137Z,86.24
2018-10-12T00:20:05.363Z,85.96
2018-10-12T00:21:05.591Z,85.96
2018-10-12T00:22:05.806Z,86.43
2018-10-12T00:23:06.033Z,86.15
2018-10-12T00:24:06.260Z,86.15
2018-10-12T00:25:06.492Z,86.24
2018-10-12T00:26:06.715Z,85.96
2018-10-12T00:27:06.941Z,86.19
2018-10-12T00:28:07.171Z,86.19
2018-10-12T00:29:07.400Z,86.15
2018-10-12T00:30:07.629Z,86.19
2018-10-12T00:31:07.854Z,86.29
2018-10-12T00:32:08.073Z,86.34
2018-10-12T00:33:08.294Z,86.29
2018-10-12T00:34:08.519Z,86.24
2018-10-12T00:35:08.745Z,86.19
2018-10-12T00:36:08.972Z,86.19
2018-10-12T00:37:09.200Z,86.15
2018-10-12T00:38:09.467Z,86.57
2018-10-12T00:39:09.659Z,85.77
2018-10-12T00:40:09.888Z,86.10
2018-10-12T00:41:10.115Z,86.29
2018-10-12T00:42:10.341Z,86.29
2018-10-12T00:43:10.569Z,86.43
2018-10-12T00:44:10.796Z,86.57
2018-10-12T00:45:11.023Z,86.67
2018-10-12T00:46:11.253Z,86.29
2018-10-12T00:47:11.480Z,86.19
2018-10-12T00:48:11.713Z,86.19
2018-10-12T00:49:11.939Z,86.24
2018-10-12T00:50:12.165Z,85.81
2018-10-12T00:51:12.392Z,85.86
2018-10-12T00:52:12.630Z,85.67
2018-10-12T00:53:12.858Z,86.05
2018-10-12T00:54:13.074Z,85.29
2018-10-12T00:55:13.304Z,85.29
2018-10-12T00:56:13.533Z,85.10
2018-10-12T00:57:13.764Z,85.48
2018-10-12T00:58:13.989Z,85.29
2018-10-12T00:59:14.223Z,84.72
2018-10-12T01:00:14.448Z,84.33
2018-10-12T01:01:14.676Z,84.43
2018-10-12T01:02:14.904Z,84.33
2018-10-12T01:03:15.131Z,84.81
2018-10-12T01:04:15.361Z,84.91
2018-10-12T01:05:15.590Z,85.48
2018-10-12T01:06:15.814Z,84.43
2018-10-12T01:07:16.045Z,84.72
2018-10-12T01:08:16.273Z,85.19
2018-10-12T01:09:16.491Z,85.48
2018-10-12T01:10:16.718Z,85.58
2018-10-12T01:11:16.953Z,85.67
2018-10-12T01:12:17.244Z,84.91
2018-10-12T01:13:17.403Z,84.43
2018-10-12T01:14:17.627Z,84.23
2018-10-12T01:15:17.855Z,83.86
2018-10-12T01:16:18.080Z,84.33
2018-10-12T01:17:18.308Z,84.33
2018-10-12T01:18:18.536Z,85.29
2018-10-12T01:19:18.765Z,85.10
2018-10-12T01:20:18.989Z,84.33
2018-10-12T01:21:19.219Z,84.52
2018-10-12T01:22:19.449Z,84.33
2018-10-12T01:23:19.670Z,85.19
2018-10-12T01:24:19.898Z,84.33
2018-10-12T01:25:20.126Z,84.33
2018-10-12T01:26:20.401Z,84.52
2018-10-12T01:27:20.582Z,85.19
2018-10-12T01:28:20.810Z,84.91
2018-10-12T01:29:21.035Z,85.58
2018-10-12T01:30:21.311Z,85.38
2018-10-12T01:31:21.537Z,86.10
2018-10-12T01:32:21.764Z,85.48
2018-10-12T01:33:21.992Z,86.24
2018-10-12T01:34:22.220Z,85.67
2018-10-12T01:35:22.449Z,84.91
2018-10-12T01:36:22.679Z,85.58
2018-10-12T01:37:22.908Z,85.48
2018-10-12T01:38:23.134Z,85.77
2018-10-12T01:39:23.358Z,86.05
2018-10-12T01:40:23.585Z,86.19
2018-10-12T01:41:23.808Z,85.71
2018-10-12T01:42:24.042Z,85.19
2018-10-12T01:43:24.262Z,85.10
2018-10-12T01:44:24.484Z,85.19
2018-10-12T01:45:24.718Z,85.19
2018-10-12T01:46:24.942Z,85.90
2018-10-12T01:47:25.170Z,85.90
2018-10-12T01:48:25.397Z,85.10
2018-10-12T01:49:25.626Z,85.05
2018-10-12T01:50:25.854Z,85.19
2018-10-12T01:51:26.073Z,84.95
2018-10-12T01:52:26.299Z,85.24
2018-10-12T01:53:26.526Z,85.71
2018-10-12T01:54:26.756Z,85.00
2018-10-12T01:55:26.982Z,84.33
2018-10-12T01:56:27.208Z,84.56
2018-10-12T01:57:27.435Z,85.14
2018-10-12T01:58:27.664Z,85.14
2018-10-12T01:59:27.893Z,84.66
2018-10-12T02:00:28.121Z,84.62
2018-10-12T02:01:28.346Z,84.62
2018-10-12T02:02:28.573Z,84.23
2018-10-12T02:03:28.801Z,84.62
2018-10-12T02:04:29.028Z,84.52
2018-10-12T02:05:29.258Z,85.24
2018-10-12T02:06:29.482Z,84.85
2018-10-12T02:07:29.712Z,85.10
2018-10-12T02:08:29.939Z,84.52
2018-10-12T02:09:30.167Z,84.66
2018-10-12T02:10:30.396Z,85.42
2018-10-12T02:11:30.627Z,85.24
2018-10-12T02:12:30.849Z,84.62
2018-10-12T02:13:31.076Z,85.24
2018-10-12T02:14:31.307Z,85.52
2018-10-12T02:15:31.528Z,86.10
2018-10-12T02:16:31.758Z,85.38
2018-10-12T02:17:31.983Z,85.48
2018-10-12T02:18:32.214Z,85.67
2018-10-12T02:19:32.437Z,84.72
2018-10-12T02:20:32.664Z,85.10
2018-10-12T02:21:32.895Z,85.48
2018-10-12T02:22:33.124Z,85.19
2018-10-12T02:23:33.348Z,86.15
2018-10-12T02:24:33.576Z,86.05
2018-10-12T02:25:33.806Z,85.38
2018-10-12T02:26:34.030Z,84.62
2018-10-12T02:27:34.256Z,84.43
2018-10-12T02:28:34.487Z,85.38
2018-10-12T02:29:34.713Z,85.00
2018-10-12T02:30:34.941Z,85.19
2018-10-12T02:31:35.168Z,85.86
2018-10-12T02:32:35.394Z,85.96
2018-10-12T02:33:35.630Z,85.48
2018-10-12T02:34:35.854Z,84.29
2018-10-12T02:35:36.087Z,84.48
2018-10-12T02:36:36.310Z,84.67
2018-10-12T02:37:36.540Z,84.96
2018-10-12T02:38:36.762Z,84.58
2018-10-12T02:39:36.990Z,84.48
2018-10-12T02:40:37.218Z,84.48
2018-10-12T02:41:37.451Z,84.29
2018-10-12T02:42:37.681Z,85.05
2018-10-12T02:43:37.903Z,85.15
2018-10-12T02:44:38.132Z,85.34
2018-10-12T02:45:38.358Z,84.58
2018-10-12T02:46:38.588Z,83.58
2018-10-12T02:47:38.815Z,83.91
2018-10-12T02:48:39.043Z,84.39
2018-10-12T02:49:39.272Z,84.25
2018-10-12T02:50:39.498Z,84.06
2018-10-12T02:51:39.730Z,84.44
2018-10-12T02:52:39.954Z,83.72
2018-10-12T02:53:40.182Z,82.91
2018-10-12T02:54:40.409Z,82.82
2018-10-12T02:55:40.632Z,82.72
2018-10-12T02:56:40.863Z,82.63
2018-10-12T02:57:41.092Z,83.20
2018-10-12T02:58:41.322Z,81.15
2018-10-12T02:59:41.548Z,81.35
2018-10-12T03:00:41.781Z,82.34
2018-10-12T03:01:41.998Z,82.24
2018-10-12T03:02:42.227Z,82.91
2018-10-12T03:03:42.455Z,83.01
2018-10-12T03:04:42.689Z,81.82
2018-10-12T03:05:42.914Z,81.25
2018-10-12T03:06:43.143Z,81.73
2018-10-12T03:07:43.364Z,81.73
2018-10-12T03:08:43.592Z,82.40
2018-10-12T03:09:43.825Z,82.53
2018-10-12T03:10:44.055Z,82.30
2018-10-12T03:11:44.281Z,81.63
2018-10-12T03:12:44.507Z,81.73
2018-10-12T03:13:44.738Z,81.63
2018-10-12T03:14:44.957Z,81.73
2018-10-12T03:15:45.184Z,81.63
2018-10-12T03:16:45.412Z,81.63
2018-10-12T03:17:45.638Z,80.68
2018-10-12T03:18:45.865Z,81.25
2018-10-12T03:19:46.092Z,81.15
2018-10-12T03:20:46.318Z,81.25
2018-10-12T03:21:46.544Z,80.87
2018-10-12T03:22:46.772Z,80.68
2018-10-12T03:23:46.998Z,79.82
2018-10-12T03:24:47.227Z,79.82
2018-10-12T03:25:47.454Z,79.72
2018-10-12T03:26:47.685Z,80.01
2018-10-12T03:27:47.911Z,79.91
2018-10-12T03:28:48.141Z,79.53
2018-10-12T03:29:48.371Z,79.25
2018-10-12T03:30:48.593Z,79.53
2018-10-12T03:31:48.825Z,79.82
2018-10-12T03:32:49.053Z,80.49
2018-10-12T03:33:49.278Z,80.20
2018-10-12T03:34:49.506Z,79.63
2018-10-12T03:35:49.733Z,79.06
2018-10-12T03:36:49.957Z,79.35
2018-10-12T03:37:50.186Z,79.25
2018-10-12T03:38:50.414Z,79.82
2018-10-12T03:39:50.640Z,80.11
2018-10-12T03:40:50.868Z,78.44
2018-10-12T03:41:51.100Z,77.59
2018-10-12T03:42:51.325Z,77.49
2018-10-12T03:43:51.558Z,78.44
2018-10-12T03:44:51.789Z,78.16
2018-10-12T03:45:52.009Z,76.73
2018-10-12T03:46:52.236Z,75.40
2018-10-12T03:47:52.462Z,74.63
2018-10-12T03:48:52.688Z,74.63
2018-10-12T03:49:52.904Z,75.11
2018-10-12T03:50:53.137Z,76.48
2018-10-12T03:51:53.360Z,76.67
2018-10-12T03:52:53.594Z,77.06
2018-10-12T03:53:53.796Z,77.15
2018-10-12T03:54:54.030Z,77.53
2018-10-12T03:55:54.240Z,77.91
2018-10-12T03:56:54.475Z,78.06
2018-10-12T03:57:54.693Z,77.97
2018-10-12T03:58:54.917Z,78.77
2018-10-12T03:59:55.140Z,78.54
2018-10-12T04:00:55.365Z,79.06
2018-10-12T04:01:55.591Z,78.06
2018-10-12T04:02:55.927Z,77.59
2018-10-12T04:03:56.044Z,77.30
2018-10-12T04:04:56.275Z,77.40
2018-10-12T04:05:56.504Z,77.69
2018-10-12T04:06:56.734Z,77.97
2018-10-12T04:07:56.964Z,78.25
2018-10-12T04:08:57.194Z,77.97
2018-10-12T04:09:57.422Z,78.64
2018-10-12T04:10:57.647Z,78.83
2018-10-12T04:11:57.875Z,78.44
2018-10-12T04:12:58.100Z,78.16
2018-10-12T04:13:58.328Z,77.69
2018-10-12T04:14:58.552Z,77.78
2018-10-12T04:15:58.775Z,77.11
2018-10-12T04:16:59.003Z,77.11
2018-10-12T04:17:59.232Z,77.69
2018-10-12T04:18:59.454Z,77.49
2018-10-12T04:19:59.687Z,77.69
2018-10-12T04:20:59.915Z,75.30
2018-10-12T04:22:00.148Z,75.01
2018-10-12T04:23:00.370Z,74.25
2018-10-12T04:24:00.600Z,74.92
2018-10-12T04:25:00.827Z,75.11
2018-10-12T04:26:01.052Z,75.20
2018-10-12T04:27:01.280Z,75.68
2018-10-12T04:28:01.508Z,76.25
2018-10-12T04:29:01.736Z,76.35
2018-10-12T04:30:01.963Z,76.92
2018-10-12T04:31:02.194Z,77.59
2018-10-12T04:32:02.416Z,77.69
2018-10-12T04:33:02.644Z,78.06
2018-10-12T04:34:02.883Z,77.87
2018-10-12T04:35:03.097Z,78.06
2018-10-12T04:36:03.324Z,78.25
2018-10-12T04:37:03.550Z,77.20
2018-10-12T04:38:03.777Z,76.82
2018-10-12T04:39:04.004Z,76.35
2018-10-12T04:40:04.241Z,76.82
2018-10-12T04:41:04.462Z,76.44
2018-10-12T04:42:04.695Z,77.69
2018-10-12T04:43:04.914Z,76.44
2018-10-12T04:44:05.139Z,75.20
2018-10-12T04:45:05.370Z,75.11
2018-10-12T04:46:05.594Z,75.78
2018-10-12T04:47:05.826Z,76.54
2018-10-12T04:48:06.049Z,77.20
2018-10-12T04:49:06.278Z,76.54
2018-10-12T04:50:06.499Z,76.50
2018-10-12T04:51:06.723Z,76.54
2018-10-12T04:52:06.955Z,77.30
2018-10-12T04:53:07.170Z,77.20
2018-10-12T04:54:07.401Z,77.78
2018-10-12T04:55:07.624Z,76.40
2018-10-12T04:56:07.856Z,76.31
2018-10-12T04:57:08.079Z,75.64
2018-10-12T04:58:08.317Z,75.64
2018-10-12T04:59:08.528Z,76.25
2018-10-12T05:00:08.759Z,76.64
2018-10-12T05:01:09.052Z,77.11
2018-10-12T05:02:09.209Z,74.98
2018-10-12T05:03:09.473Z,74.88
2018-10-12T05:04:09.678Z,76.12
2018-10-12T05:05:09.898Z,75.93
2018-10-12T05:06:10.097Z,77.26
2018-10-12T05:07:10.326Z,76.40
2018-10-12T05:08:10.554Z,77.07
2018-10-12T05:09:10.785Z,77.07
2018-10-12T05:10:11.010Z,77.20
2018-10-12T05:11:11.233Z,77.20
2018-10-12T05:12:11.461Z,76.98
2018-10-12T05:13:11.687Z,77.07
2018-10-12T05:14:11.912Z,75.74
2018-10-12T05:15:12.140Z,74.98
2018-10-12T05:16:12.366Z,74.69
2018-10-12T05:17:12.593Z,75.36
2018-10-12T05:18:12.821Z,74.79
2018-10-12T05:19:13.048Z,73.74
2018-10-12T05:20:13.274Z,72.88
2018-10-12T05:21:13.499Z,73.26
2018-10-12T05:22:13.776Z,74.40
2018-10-12T05:23:13.957Z,74.60
2018-10-12T05:24:14.189Z,73.45
2018-10-12T05:25:14.409Z,74.31
2018-10-12T05:26:14.635Z,74.79
2018-10-12T05:27:14.862Z,75.16
2018-10-12T05:28:15.089Z,75.55
2018-10-12T05:29:15.316Z,75.36
2018-10-12T05:30:15.635Z,76.21
2018-10-12T05:31:15.770Z,76.40
2018-10-12T05:32:15.996Z,76.31
2018-10-12T05:33:16.224Z,76.31
2018-10-12T05:34:16.451Z,76.31
2018-10-12T05:35:16.679Z,76.21
2018-10-12T05:36:16.910Z,76.40
2018-10-12T05:37:17.141Z,76.12
2018-10-12T05:38:17.359Z,76.92
2018-10-12T05:39:17.588Z,76.69
2018-10-12T05:40:17.816Z,75.64
2018-10-12T05:41:18.041Z,74.69
2018-10-12T05:42:18.267Z,74.50
2018-10-12T05:43:18.641Z,74.79
2018-10-12T05:44:18.721Z,75.07
2018-10-12T05:45:18.945Z,75.16
2018-10-12T05:46:19.172Z,74.69
2018-10-12T05:47:19.403Z,74.40
2018-10-12T05:48:19.635Z,74.79
2018-10-12T05:49:19.861Z,74.60
2018-10-12T05:50:20.089Z,74.79
2018-10-12T05:51:20.314Z,74.88
2018-10-12T05:52:20.542Z,75.64
2018-10-12T05:53:20.770Z,76.40
2018-10-12T05:54:20.996Z,76.21
2018-10-12T05:55:21.224Z,75.93
2018-10-12T05:56:21.451Z,76.03
2018-10-12T05:57:21.680Z,75.64
2018-10-12T05:58:21.906Z,75.45
2018-10-12T05:59:22.137Z,76.31
2018-10-12T06:00:22.358Z,76.50
2018-10-12T06:01:22.665Z,76.79
2018-10-12T06:02:22.814Z,76.59
2018-10-12T06:03:23.041Z,76.40
2018-10-12T06:04:23.268Z,76.69
2018-10-12T06:05:23.495Z,76.31
2018-10-12T06:06:23.723Z,75.45
2018-10-12T06:07:23.955Z,75.16
2018-10-12T06:08:24.177Z,75.16
2018-10-12T06:09:24.415Z,75.36
2018-10-12T06:10:24.636Z,75.74
2018-10-12T06:11:24.898Z,75.26
2018-10-12T06:12:25.093Z,74.88
2018-10-12T06:13:25.316Z,75.26
2018-10-12T06:14:25.545Z,75.45
2018-10-12T06:15:25.800Z,75.26
2018-10-12T06:16:25.989Z,75.96
2018-10-12T06:17:26.223Z,75.96
2018-10-12T06:18:26.451Z,76.73
2018-10-12T06:19:26.685Z,77.20
2018-10-12T06:20:26.907Z,77.69
2018-10-12T06:21:27.171Z,77.30
2018-10-12T06:22:27.355Z,77.69
2018-10-12T06:23:27.585Z,77.69
2018-10-12T06:24:27.809Z,77.72
2018-10-12T06:25:28.036Z,78.54
2018-10-12T06:26:28.266Z,78.39
2018-10-12T06:27:28.494Z,79.25
2018-10-12T06:28:28.721Z,78.86
2018-10-12T06:29:28.950Z,79.06
2018-10-12T06:30:29.182Z,79.15
2018-10-12T06:31:29.405Z,79.35
2018-10-12T06:32:29.630Z,79.72
2018-10-12T06:33:29.856Z,80.20
2018-10-12T06:34:30.081Z,80.30
2018-10-12T06:35:30.309Z,79.91
2018-10-12T06:36:30.538Z,80.30
2018-10-12T06:37:30.763Z,81.29
2018-10-12T06:38:30.991Z,81.48
2018-10-12T06:39:31.218Z,81.10
2018-10-12T06:40:31.446Z,81.58
2018-10-12T06:41:31.891Z,81.54
2018-10-12T06:42:31.900Z,81.44
2018-10-12T06:43:32.134Z,81.82
2018-10-12T06:44:32.359Z,81.73
2018-10-12T06:45:32.584Z,80.87
2018-10-12T06:46:32.872Z,80.01
2018-10-12T06:47:33.039Z,81.15
2018-10-12T06:48:33.271Z,81.06
2018-10-12T06:49:33.495Z,81.54
2018-10-12T06:50:33.727Z,81.86
2018-10-12T06:51:33.944Z,82.15
2018-10-12T06:52:34.172Z,81.96
2018-10-12T06:53:34.406Z,81.96
2018-10-12T06:54:34.626Z,82.72
2018-10-12T06:55:34.854Z,83.39
2018-10-12T06:56:35.088Z,83.87
2018-10-12T06:57:35.307Z,83.87
2018-10-12T06:58:35.536Z,83.77
2018-10-12T06:59:35.765Z,83.20
2018-10-12T07:00:35.991Z,83.11
2018-10-12T07:01:36.218Z,82.72
2018-10-12T07:02:36.446Z,82.06
2018-10-12T07:03:36.676Z,81.96
2018-10-12T07:04:36.900Z,82.91
2018-10-12T07:05:37.239Z,82.63
2018-10-12T07:06:37.357Z,82.00
2018-10-12T07:07:37.584Z,82.48
2018-10-12T07:08:37.816Z,82.95
2018-10-12T07:09:38.039Z,83.43
2018-10-12T07:10:38.265Z,83.53
2018-10-12T07:11:38.494Z,83.72
2018-10-12T07:12:38.721Z,83.81
2018-10-12T07:13:38.978Z,84.20
2018-10-12T07:14:39.178Z,84.52
2018-10-12T07:15:39.406Z,84.62
2018-10-12T07:16:39.632Z,84.72
2018-10-12T07:17:39.859Z,84.52
2018-10-12T07:18:40.087Z,84.43
2018-10-12T07:19:40.366Z,84.05
2018-10-12T07:20:40.539Z,83.57
2018-10-12T07:21:40.767Z,83.57
2018-10-12T07:22:40.994Z,83.57
2018-10-12T07:23:41.219Z,84.05
2018-10-12T07:24:41.450Z,84.72
2018-10-12T07:25:41.676Z,83.09
2018-10-12T07:26:41.905Z,82.81
2018-10-12T07:27:42.133Z,83.47
2018-10-12T07:28:42.362Z,84.14
2018-10-12T07:29:42.595Z,83.47
2018-10-12T07:30:42.824Z,84.47
2018-10-12T07:31:43.044Z,84.56
2018-10-12T07:32:43.271Z,85.62
2018-10-12T07:33:43.491Z,86.29
2018-10-12T07:34:43.720Z,86.10
2018-10-12T07:35:43.946Z,86.47
2018-10-12T07:36:44.175Z,86.67
2018-10-12T07:37:45.267Z,86.86
2018-10-12T07:38:44.622Z,87.15
2018-10-12T07:39:44.857Z,87.00
2018-10-12T07:40:45.079Z,86.29
2018-10-12T07:41:45.310Z,86.00
2018-10-12T07:42:45.537Z,85.71
2018-10-12T07:43:45.765Z,86.29
2018-10-12T07:44:45.996Z,86.29
2018-10-12T07:45:46.229Z,86.38
2018-10-12T07:46:46.456Z,86.90
2018-10-12T07:47:46.688Z,87.19
2018-10-12T07:48:46.918Z,86.47
2018-10-12T07:49:47.147Z,86.10
2018-10-12T07:50:47.363Z,86.67
2018-10-12T07:51:47.591Z,87.05
2018-10-12T07:52:47.822Z,85.81
2018-10-12T07:53:48.046Z,84.47
2018-10-12T07:54:48.280Z,84.28
2018-10-12T07:55:48.506Z,87.19
2018-10-12T07:56:48.732Z,86.90
2018-10-12T07:57:48.960Z,87.57
2018-10-12T07:58:49.189Z,88.34
2018-10-12T07:59:49.418Z,88.05
2018-10-12T08:00:49.850Z,88.53
2018-10-12T08:01:49.871Z,88.72
2018-10-12T08:02:50.102Z,88.76
2018-10-12T08:03:50.331Z,88.86
2018-10-12T08:04:50.558Z,89.24
2018-10-12T08:05:50.789Z,88.95
2018-10-12T08:06:51.062Z,89.53
2018-10-12T08:07:51.242Z,88.67
2018-10-12T08:08:51.470Z,89.34
2018-10-12T08:09:51.699Z,89.05
2018-10-12T08:10:51.930Z,89.81
2018-10-12T08:11:52.154Z,89.95
2018-10-12T08:12:52.382Z,90.05
2018-10-12T08:13:52.704Z,89.95
2018-10-12T08:14:52.837Z,89.86
2018-10-12T08:15:53.063Z,90.15
2018-10-12T08:16:53.292Z,89.76
2018-10-12T08:17:53.526Z,90.24
2018-10-12T08:18:53.759Z,90.15
2018-10-12T08:19:53.988Z,90.24
2018-10-12T08:20:54.217Z,90.77
2018-10-12T08:21:54.446Z,91.05
2018-10-12T08:22:54.674Z,91.05
2018-10-12T08:23:54.905Z,90.96
2018-10-12T08:24:55.132Z,91.25
2018-10-12T08:25:55.363Z,91.05
2018-10-12T08:26:55.601Z,91.44
2018-10-12T08:27:55.824Z,91.44
2018-10-12T08:28:56.051Z,91.53
2018-10-12T08:29:56.281Z,91.44
2018-10-12T08:30:56.506Z,91.86
2018-10-12T08:31:56.734Z,92.06
2018-10-12T08:32:56.987Z,92.25
2018-10-12T08:33:57.196Z,92.25
2018-10-12T08:34:57.425Z,92.44
2018-10-12T08:35:57.649Z,92.25
2018-10-12T08:36:57.879Z,92.25
2018-10-12T08:37:58.108Z,92.15
2018-10-12T08:38:58.344Z,92.54
2018-10-12T08:39:58.569Z,92.54
2018-10-12T08:40:58.797Z,92.77
2018-10-12T08:41:59.051Z,92.39
2018-10-12T08:42:59.259Z,93.26
2018-10-12T08:43:59.483Z,93.54
2018-10-12T08:44:59.717Z,93.63
2018-10-12T08:45:59.946Z,93.54
2018-10-12T08:47:00.181Z,93.06
2018-10-12T08:48:00.407Z,93.16
2018-10-12T08:49:00.638Z,92.97
2018-10-12T08:50:00.864Z,92.39
2018-10-12T08:51:01.111Z,92.58
2018-10-12T08:52:01.327Z,92.77
2018-10-12T08:53:01.562Z,93.59
2018-10-12T08:54:01.786Z,92.72
2018-10-12T08:55:02.013Z,93.97
2018-10-12T08:56:02.244Z,93.30
2018-10-12T08:57:02.472Z,93.49
2018-10-12T08:58:02.702Z,92.91
2018-10-12T08:59:02.933Z,93.78
2018-10-12T09:00:03.166Z,93.44
2018-10-12T09:01:03.394Z,94.40
2018-10-12T09:02:03.616Z,94.59
2018-10-12T09:03:03.904Z,94.02
2018-10-12T09:04:04.077Z,94.31
2018-10-12T09:05:04.307Z,94.12
2018-10-12T09:06:04.538Z,94.26
2018-10-12T09:07:04.766Z,94.31
2018-10-12T09:08:05.000Z,94.69
2018-10-12T09:09:05.232Z,94.98
2018-10-12T09:10:05.456Z,94.74
2018-10-12T09:11:05.686Z,95.03
2018-10-12T09:12:05.920Z,94.83
2018-10-12T09:13:06.143Z,95.03
2018-10-12T09:14:06.375Z,93.87
2018-10-12T09:15:06.606Z,94.64
2018-10-12T09:16:06.870Z,94.74
2018-10-12T09:17:07.063Z,94.74
2018-10-12T09:18:07.292Z,95.26
2018-10-12T09:19:07.514Z,95.50
2018-10-12T09:20:07.790Z,95.65
2018-10-12T09:21:07.978Z,95.45
2018-10-12T09:22:08.205Z,95.17
2018-10-12T09:23:08.433Z,95.65
2018-10-12T09:24:08.666Z,95.84
2018-10-12T09:25:08.897Z,95.40
2018-10-12T09:26:09.132Z,95.50
2018-10-12T09:27:09.383Z,95.50
2018-10-12T09:28:09.589Z,95.60
2018-10-12T09:29:09.823Z,95.60
2018-10-12T09:30:10.092Z,95.40
2018-10-12T09:31:10.281Z,95.60
2018-10-12T09:32:10.505Z,95.31
2018-10-12T09:33:10.737Z,95.45
2018-10-12T09:34:10.967Z,95.55
2018-10-12T09:35:11.200Z,95.65
2018-10-12T09:36:11.432Z,95.26
2018-10-12T09:37:11.660Z,95.02
2018-10-12T09:38:11.891Z,94.98
2018-10-12T09:39:12.116Z,95.79
2018-10-12T09:40:12.345Z,95.31
2018-10-12T09:41:12.572Z,95.60
2018-10-12T09:42:12.803Z,95.60
2018-10-12T09:43:13.090Z,95.31
2018-10-12T09:44:13.265Z,95.60
2018-10-12T09:45:13.495Z,95.55
2018-10-12T09:46:13.727Z,95.17
2018-10-12T09:47:13.955Z,95.26
2018-10-12T09:48:14.180Z,95.07
2018-10-12T09:49:14.408Z,95.74
2018-10-12T09:50:14.660Z,94.87
2018-10-12T09:51:14.868Z,95.26
2018-10-12T09:52:15.102Z,95.36
2018-10-12T09:53:15.332Z,94.34
2018-10-12T09:54:15.564Z,94.78
2018-10-12T09:55:15.795Z,95.12
2018-10-12T09:56:16.029Z,95.02
2018-10-12T09:57:16.261Z,94.87
2018-10-12T09:58:16.496Z,95.02
2018-10-12T09:59:16.720Z,94.82
2018-10-12T10:00:16.948Z,94.73
2018-10-12T10:01:17.185Z,94.82
2018-10-12T10:02:17.529Z,94.06
2018-10-12T10:03:17.646Z,94.34
2018-10-12T10:04:17.871Z,94.64
2018-10-12T10:05:18.104Z,94.78
2018-10-12T10:06:18.331Z,94.87
2018-10-12T10:07:18.564Z,94.39
2018-10-12T10:08:18.947Z,94.78
2018-10-12T10:09:19.023Z,94.68
2018-10-12T10:10:19.256Z,95.16
2018-10-12T10:11:19.487Z,94.49
2018-10-12T10:12:19.719Z,94.68
2018-10-12T10:13:19.955Z,94.68
2018-10-12T10:14:20.181Z,94.78
2018-10-12T10:15:20.477Z,94.63
2018-10-12T10:16:20.657Z,94.82
2018-10-12T10:17:20.876Z,94.34
2018-10-12T10:18:21.110Z,93.86
2018-10-12T10:19:21.395Z,94.82
2018-10-12T10:20:21.567Z,94.06
2018-10-12T10:21:21.800Z,94.15
2018-10-12T10:22:22.064Z,93.86
2018-10-12T10:23:22.261Z,93.62
2018-10-12T10:24:22.495Z,94.00
2018-10-12T10:25:22.730Z,93.91
2018-10-12T10:26:22.963Z,93.43
2018-10-12T10:27:23.193Z,92.85
2018-10-12T10:28:23.421Z,93.08
2018-10-12T10:29:23.762Z,92.99
2018-10-12T10:30:24.038Z,93.08
2018-10-12T10:31:24.113Z,93.08
2018-10-12T10:32:24.354Z,92.89
2018-10-12T10:33:24.575Z,92.80
2018-10-12T10:34:24.809Z,93.08
2018-10-12T10:35:25.043Z,93.08
2018-10-12T10:36:25.272Z,92.50
2018-10-12T10:37:25.505Z,92.22
2018-10-12T10:38:25.733Z,92.22
2018-10-12T10:39:25.960Z,92.50
2018-10-12T10:40:26.189Z,92.32
2018-10-12T10:41:26.425Z,92.12
2018-10-12T10:42:26.659Z,91.97
2018-10-12T10:43:26.886Z,91.39
2018-10-12T10:44:27.119Z,91.59
2018-10-12T10:45:27.351Z,91.39
2018-10-12T10:46:27.699Z,91.78
2018-10-12T10:47:27.816Z,91.68
2018-10-12T10:48:28.051Z,91.68
2018-10-12T10:49:28.283Z,91.49
2018-10-12T10:50:28.515Z,90.62
2018-10-12T10:51:28.745Z,91.59
2018-10-12T10:52:28.976Z,90.62
2018-10-12T10:53:29.215Z,90.91
2018-10-12T10:54:29.441Z,90.05
2018-10-12T10:55:29.672Z,90.05
2018-10-12T10:56:29.905Z,91.11
2018-10-12T10:57:30.139Z,90.81
2018-10-12T10:58:30.370Z,90.62
2018-10-12T10:59:30.602Z,90.81
2018-10-12T11:00:30.839Z,91.11
2018-10-12T11:01:31.074Z,90.81
2018-10-12T11:02:31.298Z,91.78
2018-10-12T11:03:31.527Z,91.49
2018-10-12T11:04:31.758Z,90.72
2018-10-12T11:05:31.988Z,90.05
2018-10-12T11:06:32.218Z,90.53
2018-10-12T11:07:32.451Z,89.85
2018-10-12T11:08:32.686Z,89.85
2018-10-12T11:09:32.916Z,89.85
2018-10-12T11:10:33.152Z,90.23
2018-10-12T11:11:33.386Z,91.30
2018-10-12T11:12:33.654Z,90.14
2018-10-12T11:13:33.849Z,89.95
2018-10-12T11:14:34.086Z,89.85
2018-10-12T11:15:34.335Z,89.65
2018-10-12T11:16:34.544Z,89.89
2018-10-12T11:17:34.780Z,90.09
2018-10-12T11:18:35.011Z,90.19
2018-10-12T11:19:35.295Z,90.67
2018-10-12T11:20:35.472Z,91.15
2018-10-12T11:21:35.702Z,90.57
2018-10-12T11:22:35.933Z,87.38
2018-10-12T11:23:36.162Z,85.88
2018-10-12T11:24:36.476Z,87.43
2018-10-12T11:25:36.626Z,86.07
2018-10-12T11:26:36.911Z,86.65
2018-10-12T11:27:37.094Z,85.69
2018-10-12T11:28:37.326Z,86.46
2018-10-12T11:29:37.556Z,84.43
2018-10-12T11:30:37.791Z,84.00
2018-10-12T11:31:38.028Z,84.72
2018-10-12T11:32:38.313Z,85.98
2018-10-12T11:33:38.496Z,84.82
2018-10-12T11:34:38.728Z,84.63
2018-10-12T11:35:38.953Z,83.75
2018-10-12T11:36:39.185Z,84.53
2018-10-12T11:37:39.420Z,84.53
2018-10-12T11:38:39.649Z,83.56
2018-10-12T11:39:39.882Z,82.60
2018-10-12T11:40:40.109Z,82.40
2018-10-12T11:41:40.339Z,81.53
2018-10-12T11:42:40.613Z,80.38
2018-10-12T11:43:40.799Z,82.21
2018-10-12T11:44:41.032Z,81.34
2018-10-12T11:45:41.262Z,81.96
2018-10-12T11:46:41.497Z,81.29
2018-10-12T11:47:41.720Z,81.09
2018-10-12T11:48:41.954Z,82.06
2018-10-12T11:49:42.181Z,81.29
2018-10-12T11:50:42.421Z,80.41
2018-10-12T11:51:42.654Z,80.22
2018-10-12T11:52:42.911Z,78.13
2018-10-12T11:53:43.129Z,77.03
2018-10-12T11:54:43.347Z,77.32
2018-10-12T11:55:43.576Z,77.03
2018-10-12T11:56:43.808Z,78.09
2018-10-12T11:57:44.037Z,78.38
2018-10-12T11:58:44.266Z,78.96
2018-10-12T11:59:44.503Z,79.45
2018-10-12T12:00:44.791Z,80.36
2018-10-12T12:01:44.969Z,79.49
2018-10-12T12:02:45.202Z,80.74
2018-10-12T12:03:45.436Z,78.42
2018-10-12T12:04:45.669Z,79.29
2018-10-12T12:05:45.906Z,80.55
2018-10-12T12:06:46.149Z,78.52
2018-10-12T12:07:46.369Z,78.33
2018-10-12T12:08:46.603Z,77.84
2018-10-12T12:09:46.834Z,79.58
2018-10-12T12:10:47.068Z,78.03
2018-10-12T12:11:47.298Z,76.59
2018-10-12T12:12:47.538Z,77.55
2018-10-12T12:13:47.904Z,78.33
2018-10-12T12:14:47.994Z,75.81
2018-10-12T12:15:48.229Z,77.17
2018-10-12T12:16:48.484Z,77.45
2018-10-12T12:17:48.700Z,77.07
2018-10-12T12:18:48.922Z,75.71
2018-10-12T12:19:49.163Z,77.07
2018-10-12T12:20:49.389Z,75.81
2018-10-12T12:21:49.618Z,76.87
2018-10-12T12:22:49.846Z,74.85
2018-10-12T12:23:50.081Z,74.69
2018-10-12T12:24:50.316Z,74.98
2018-10-12T12:25:50.553Z,75.56
2018-10-12T12:26:50.782Z,73.72
2018-10-12T12:27:51.016Z,75.65
2018-10-12T12:28:51.252Z,74.79
2018-10-12T12:29:51.482Z,74.21
2018-10-12T12:30:51.716Z,74.69
2018-10-12T12:31:51.950Z,73.43
2018-10-12T12:32:52.183Z,72.46
2018-10-12T12:33:52.418Z,73.91
2018-10-12T12:34:52.819Z,74.11
2018-10-12T12:35:53.212Z,73.63
2018-10-12T12:36:53.124Z,72.75
2018-10-12T12:37:53.368Z,73.82
2018-10-12T12:38:53.587Z,74.30
2018-10-12T12:39:53.817Z,72.56
2018-10-12T12:40:54.059Z,72.66
2018-10-12T12:41:54.281Z,72.56
2018-10-12T12:42:54.517Z,71.69
2018-10-12T12:43:54.746Z,71.78
2018-10-12T12:44:54.982Z,71.50
2018-10-12T12:45:55.215Z,72.08
2018-10-12T12:46:55.448Z,71.11
2018-10-12T12:47:55.802Z,72.66
2018-10-12T12:48:56.352Z,71.98
2018-10-12T12:49:56.158Z,71.50
2018-10-12T12:50:56.385Z,70.24
2018-10-12T12:51:56.616Z,70.82
2018-10-12T12:52:56.848Z,71.40
2018-10-12T12:53:57.171Z,70.04
2018-10-12T12:54:57.316Z,69.85